Time;durP1;ratioP1;P1;durP2;ratioP2;P2;SDS_P1;SDS_P2;PMS_P1;PMS_P2;Temp;Humidity;BMP_temperature;BMP_pressure;BME280_temperature;BME280_humidity;BME280_pressure;Samples;Min_cycle;Max_cycle;Signal;HPM_P1;HPM_P2
2022/04/01 00:01:00;;;;;;;0.57;0.57;;;;;;;-0.80;85.60;98665.91;4933175;29;20102;-86
2022/04/01 00:03:27;;;;;;;0.80;0.80;;;;;;;-0.82;85.61;98672.41;4933808;29;20067;-87
2022/04/01 00:05:54;;;;;;;0.60;0.60;;;;;;;-0.84;85.57;98669.09;4933769;29;20534;-86
2022/04/01 00:08:22;;;;;;;0.50;0.50;;;;;;;-0.84;85.69;98669.09;4933439;29;20099;-87
2022/04/01 00:10:50;;;;;;;0.88;0.88;;;;;;;-0.78;85.96;98676.34;4934029;29;20052;-86
2022/04/01 00:13:17;;;;;;;0.50;0.50;;;;;;;-0.80;85.40;98673.06;4933792;29;20082;-87
2022/04/01 00:15:45;;;;;;;0.70;0.70;;;;;;;-0.82;85.72;98677.69;4917855;29;20055;-86
2022/04/01 00:18:13;;;;;;;0.60;0.60;;;;;;;-0.80;85.56;98673.88;4936256;29;20052;-86
2022/04/01 00:20:40;;;;;;;0.60;0.60;;;;;;;-0.81;85.57;98681.97;4936224;29;20146;-88
2022/04/01 00:23:07;;;;;;;0.70;0.70;;;;;;;-0.81;85.62;98674.03;4937758;29;20056;-86
2022/04/01 00:25:36;;;;;;;0.60;0.60;;;;;;;-0.80;85.95;98671.22;4935942;29;20083;-88
2022/04/01 00:28:07;;;;;;;0.70;0.70;;;;;;;-0.78;85.97;98676.34;4920286;29;20581;-87
2022/04/01 00:30:36;;;;;;;0.70;0.70;;;;;;;-0.82;86.14;98677.69;4937296;29;20075;-87
2022/04/01 00:33:10;;;;;;;0.70;0.70;;;;;;;-0.82;86.16;98681.16;4921580;29;20047;-89
2022/04/01 00:35:38;;;;;;;0.70;0.70;;;;;;;-0.81;85.99;98676.69;4936222;29;20051;-85
2022/04/01 00:38:06;;;;;;;0.60;0.60;;;;;;;-0.80;86.14;98675.69;4923780;29;20055;-86
2022/04/01 00:40:35;;;;;;;0.68;0.68;;;;;;;-0.79;86.27;98679.97;4956401;29;20403;-86
2022/04/01 00:43:02;;;;;;;0.60;0.60;;;;;;;-0.80;86.19;98678.34;4956361;29;20495;-87
2022/04/01 00:45:30;;;;;;;0.63;0.63;;;;;;;-0.80;86.14;98681.00;4955465;29;20051;-84
2022/04/01 00:48:01;;;;;;;0.70;0.70;;;;;;;-0.81;86.25;98681.97;4959439;29;20079;-85
2022/04/01 00:50:32;;;;;;;0.70;0.70;;;;;;;-0.90;86.06;98689.19;4969550;29;20205;-86
2022/04/01 00:53:00;;;;;;;0.70;0.70;;;;;;;-0.95;86.32;98694.19;4963052;29;20086;-86
2022/04/01 00:55:28;;;;;;;0.70;0.70;;;;;;;-0.99;86.47;98691.06;4969778;29;20058;-85
2022/04/01 00:57:56;;;;;;;0.80;0.80;;;;;;;-0.98;86.60;98684.78;4971319;29;20035;-86
2022/04/01 01:00:25;;;;;;;0.60;0.60;;;;;;;-1.02;86.66;98688.78;4953338;29;20079;-85
2022/04/01 01:02:54;;;;;;;0.75;0.75;;;;;;;-1.04;86.76;98687.31;4964740;29;20090;-86
2022/04/01 01:05:24;;;;;;;0.70;0.70;;;;;;;-1.06;86.86;98689.31;4951428;29;20106;-87
2022/04/01 01:07:51;;;;;;;0.70;0.70;;;;;;;-1.05;86.96;98697.09;4968713;29;20051;-87
2022/04/01 01:10:19;;;;;;;0.60;0.60;;;;;;;-1.03;86.78;98692.44;4941301;29;20051;-87
2022/04/01 01:12:46;;;;;;;0.57;0.57;;;;;;;-1.03;86.98;98692.44;4956416;29;20091;-88
2022/04/01 01:15:18;;;;;;;0.70;0.70;;;;;;;-1.01;87.04;98694.91;4955339;29;20066;-88
2022/04/01 01:17:46;;;;;;;0.60;0.60;;;;;;;-1.03;87.05;98697.75;4956555;29;20051;-87
2022/04/01 01:20:17;;;;;;;0.63;0.63;;;;;;;-1.01;86.92;98701.03;4939387;29;20066;-86
2022/04/01 01:22:52;;;;;;;0.60;0.60;;;;;;;-1.00;86.98;98701.84;4955141;29;20051;-87
2022/04/01 01:25:21;;;;;;;0.68;0.68;;;;;;;-0.95;87.00;98699.50;4955571;29;20510;-86
2022/04/01 01:27:48;;;;;;;0.70;0.70;;;;;;;-0.92;87.16;98697.31;4954976;28;20051;-85
2022/04/01 01:30:24;;;;;;;0.80;0.80;;;;;;;-0.92;87.01;98704.44;4939244;29;20061;-86
2022/04/01 01:32:52;;;;;;;0.60;0.60;;;;;;;-0.98;87.08;98705.97;4956607;29;20043;-85
2022/04/01 01:35:19;;;;;;;0.60;0.60;;;;;;;-0.99;87.17;98704.31;4956382;29;20055;-87
2022/04/01 01:37:46;;;;;;;0.60;0.60;;;;;;;-0.95;87.16;98702.16;4954834;29;20054;-85
2022/04/01 01:40:14;;;;;;;0.52;0.52;;;;;;;-0.95;87.33;98704.81;4955982;29;20537;-86
2022/04/01 01:42:41;;;;;;;0.55;0.55;;;;;;;-0.94;87.29;98704.63;4956298;29;20392;-85
2022/04/01 01:45:12;;;;;;;0.52;0.52;;;;;;;-0.90;87.29;98703.25;4956056;29;20051;-87
2022/04/01 01:47:39;;;;;;;0.70;0.70;;;;;;;-0.91;87.09;98712.22;4957356;29;20116;-86
2022/04/01 01:55:41;;;;;;;0.70;0.70;;;;;;;-0.94;86.94;98712.59;4938279;29;20047;-86
2022/04/01 01:58:09;;;;;;;0.60;0.60;;;;;;;-0.93;86.79;98716.88;4954267;29;20055;-87
2022/04/01 02:00:37;;;;;;;0.52;0.52;;;;;;;-0.91;86.67;98712.22;4938143;29;20053;-86
2022/04/01 02:03:04;;;;;;;0.70;0.70;;;;;;;-0.96;86.55;98709.28;4955231;29;20051;-87
2022/04/01 02:05:35;;;;;;;0.45;0.45;;;;;;;-1.02;86.72;98709.16;4955067;29;20047;-86
2022/04/01 02:08:06;;;;;;;0.43;0.43;;;;;;;-1.06;86.86;98714.00;4938303;29;20051;-87
2022/04/01 02:10:36;;;;;;;0.60;0.60;;;;;;;-1.06;86.87;98716.66;4954515;29;20047;-87
2022/04/01 02:13:06;;;;;;;0.50;0.50;;;;;;;-1.04;86.63;98709.31;4955768;29;20498;-86
2022/04/01 02:15:38;;;;;;;0.77;0.77;;;;;;;-1.05;86.50;98715.63;4939891;29;20063;-87
2022/04/01 02:18:05;;;;;;;0.70;0.70;;;;;;;-1.05;86.50;98712.97;4967258;29;20075;-86
2022/04/01 02:23:28;;;;;;;0.60;0.60;;;;;;;-1.07;86.56;98717.63;4965755;29;20234;-90
2022/04/01 02:25:57;;;;;;;0.70;0.70;;;;;;;-1.08;86.71;98721.28;4963096;29;20082;-90
2022/04/01 02:28:25;;;;;;;0.52;0.52;;;;;;;-1.09;86.64;98719.63;4955563;29;20047;-89
2022/04/01 02:30:53;;;;;;;0.52;0.52;;;;;;;-1.03;86.62;98723.41;4955803;29;20071;-90
2022/04/01 02:33:46;;;;;;;0.70;0.70;;;;;;;-1.06;86.46;98719.28;4958480;29;20063;-92
2022/04/01 02:36:13;;;;;;;0.60;0.60;;;;;;;-1.03;86.41;98726.06;4923675;29;20051;-84
2022/04/01 02:38:41;;;;;;;0.60;0.60;;;;;;;-1.07;86.40;98730.06;4936549;29;20095;-85
2022/04/01 02:41:13;;;;;;;0.60;0.60;;;;;;;-1.04;86.31;98733.16;4953680;29;20059;-84
2022/04/01 02:43:41;;;;;;;0.60;0.60;;;;;;;-1.05;86.01;98720.94;4953467;29;20055;-85
2022/04/01 02:46:10;;;;;;;0.55;0.55;;;;;;;-1.03;85.98;98724.22;4954567;29;20130;-86
2022/04/01 02:48:47;;;;;;;0.73;0.73;;;;;;;-1.05;86.08;98725.41;4956594;29;20123;-84
2022/04/01 02:51:29;;;;;;;0.70;0.70;;;;;;;-1.11;85.93;98732.25;4958402;29;20043;-89
2022/04/01 02:54:07;;;;;;;0.57;0.57;;;;;;;-1.14;85.67;98729.91;4956478;29;20054;-91
2022/04/01 02:56:37;;;;;;;0.70;0.70;;;;;;;-1.13;86.03;98731.59;4956154;29;20047;-86
2022/04/01 02:59:08;;;;;;;0.60;0.60;;;;;;;-1.09;85.93;98730.22;4938143;29;20047;-87
2022/04/01 03:01:39;;;;;;;0.80;0.80;;;;;;;-1.12;85.80;98726.09;4920871;29;20047;-86
2022/04/01 03:04:11;;;;;;;0.60;0.60;;;;;;;-1.11;85.71;98730.41;4936479;29;20141;-86
2022/04/01 03:06:51;;;;;;;0.50;0.50;;;;;;;-1.13;85.54;98732.41;4952489;29;20051;-87
2022/04/01 03:09:19;;;;;;;0.60;0.60;;;;;;;-1.13;85.56;98734.25;4953624;29;20690;-86
2022/04/01 03:12:00;;;;;;;0.60;0.60;;;;;;;-1.16;85.45;98740.72;4936382;29;20047;-85
2022/04/01 03:14:48;;;;;;;0.68;0.68;;;;;;;-1.17;85.63;98740.88;4935775;29;20062;-87
2022/04/01 03:17:34;;;;;;;0.80;0.80;;;;;;;-1.18;85.22;98744.53;4936276;29;20059;-85
2022/04/01 03:20:13;;;;;;;0.50;0.50;;;;;;;-1.19;85.28;98741.06;4937001;29;20434;-85
2022/04/01 03:22:45;;;;;;;0.60;0.60;;;;;;;-1.15;85.41;98742.34;4935470;29;20051;-84
2022/04/01 03:25:22;;;;;;;0.40;0.40;;;;;;;-1.13;85.16;98744.81;4951398;29;20515;-85
2022/04/01 03:28:15;;;;;;;0.60;0.60;;;;;;;-1.18;84.69;98736.59;4944340;29;20081;-85
2022/04/01 03:30:45;;;;;;;0.60;0.60;;;;;;;-1.23;84.83;98746.88;4935594;29;20055;-84
2022/04/01 03:33:16;;;;;;;0.70;0.70;;;;;;;-1.25;84.88;98752.34;4952045;29;20078;-83
2022/04/01 03:35:43;;;;;;;0.70;0.70;;;;;;;-1.25;84.80;98748.88;4952370;29;20129;-83
2022/04/01 03:38:11;;;;;;;0.60;0.60;;;;;;;-1.22;84.70;98748.53;4952930;29;20047;-86
2022/04/01 03:40:48;;;;;;;0.90;0.90;;;;;;;-1.21;85.12;98752.84;4953229;29;20062;-89
2022/04/01 03:43:16;;;;;;;0.68;0.68;;;;;;;-1.24;84.89;98747.88;4936843;29;20170;-90
2022/04/01 03:45:49;;;;;;;0.70;0.70;;;;;;;-1.25;85.13;98748.88;4950971;29;20054;-84
2022/04/01 03:48:32;;;;;;;0.47;0.47;;;;;;;-1.20;85.32;98757.94;4933211;29;20051;-84
2022/04/01 03:51:00;;;;;;;0.50;0.50;;;;;;;-1.26;85.30;98753.34;4957261;28;20074;-91
2022/04/01 03:53:40;;;;;;;0.60;0.60;;;;;;;-1.24;85.00;98758.47;4958038;29;20063;-90
2022/04/01 03:56:15;;;;;;;0.77;0.77;;;;;;;-1.26;85.02;98755.19;4943295;29;20039;-89
2022/04/01 03:59:07;;;;;;;0.63;0.63;;;;;;;-1.25;85.17;98749.69;4960857;29;20044;-91
2022/04/01 04:02:01;;;;;;;0.70;0.70;;;;;;;-1.28;85.31;98749.22;4947034;29;20058;-94
2022/04/01 04:04:29;;;;;;;0.70;0.70;;;;;;;-1.35;85.48;98746.44;4968186;28;20051;-87
2022/04/01 04:07:00;;;;;;;0.70;0.70;;;;;;;-1.36;85.47;98750.91;4611576;29;9999939;-86
2022/04/01 04:09:28;;;;;;;0.60;0.60;;;;;;;-1.36;85.83;98745.63;4937353;29;20291;-84
2022/04/01 04:11:55;;;;;;;0.57;0.57;;;;;;;-1.36;85.74;98745.63;4924003;29;20055;-85
2022/04/01 04:14:27;;;;;;;0.60;0.60;;;;;;;-1.31;85.81;98748.56;4947173;29;20063;-83
2022/04/01 04:16:56;;;;;;;0.80;0.80;;;;;;;-1.27;85.80;98748.22;4915242;29;20059;-85
2022/04/01 04:19:34;;;;;;;0.70;0.70;;;;;;;-1.26;86.02;98752.53;4956352;29;20054;-86
2022/04/01 04:22:16;;;;;;;0.55;0.55;;;;;;;-1.24;85.64;98750.50;4940083;29;20051;-85
2022/04/01 04:24:58;;;;;;;0.70;0.70;;;;;;;-1.26;85.83;98752.53;4940113;29;20138;-86
2022/04/01 04:27:29;;;;;;;0.70;0.70;;;;;;;-1.24;85.72;98758.47;4940300;29;20536;-86
2022/04/01 04:30:09;;;;;;;0.55;0.55;;;;;;;-1.29;85.97;98753.72;4924394;29;20525;-88
2022/04/01 04:33:03;;;;;;;0.70;0.70;;;;;;;-1.29;85.87;98766.09;4939935;29;20047;-86
2022/04/01 04:35:37;;;;;;;0.63;0.63;;;;;;;-1.25;85.85;98768.22;4939686;29;20082;-86
2022/04/01 04:38:06;;;;;;;0.50;0.50;;;;;;;-1.24;85.84;98769.91;4955093;29;20069;-86
2022/04/01 04:40:34;;;;;;;0.63;0.63;;;;;;;-1.23;85.85;98770.72;4923499;29;20577;-86
2022/04/01 04:43:14;;;;;;;0.70;0.70;;;;;;;-1.25;86.02;98772.72;4956434;29;20058;-86
2022/04/01 04:45:43;;;;;;;0.70;0.70;;;;;;;-1.22;86.15;98773.16;4954820;29;20051;-86
2022/04/01 04:48:12;;;;;;;0.70;0.70;;;;;;;-1.23;85.87;98776.00;4939229;29;20051;-88
2022/04/01 04:50:49;;;;;;;0.70;0.70;;;;;;;-1.15;85.77;98778.59;4939613;29;20079;-86
2022/04/01 04:53:19;;;;;;;0.50;0.50;;;;;;;-1.09;85.89;98777.91;4939173;29;20096;-86
2022/04/01 04:55:49;;;;;;;0.60;0.60;;;;;;;-1.03;85.79;98784.34;4954672;29;20395;-86
2022/04/01 04:58:31;;;;;;;0.65;0.65;;;;;;;-1.02;85.66;98788.63;4955814;29;20055;-86
2022/04/01 05:01:03;;;;;;;;;;;;;;;-1.11;85.51;98790.50;4940233;29;20083;-88
2022/04/01 05:03:50;;;;;;;0.70;0.70;;;;;;;-1.13;85.39;98789.84;4964566;28;20020;-86
2022/04/01 05:06:29;;;;;;;0.60;0.60;;;;;;;-1.07;85.25;98801.56;4935874;29;20086;-88
2022/04/01 05:09:34;;;;;;;0.90;0.90;;;;;;;-1.06;85.10;98804.06;4887325;29;20056;-88
2022/04/01 05:12:42;;;;;;;0.68;0.68;;;;;;;-1.04;85.21;98803.84;4877352;29;20273;-89
2022/04/01 05:15:35;;;;;;;0.60;0.60;;;;;;;-1.07;85.07;98798.91;4878212;29;20489;-86
2022/04/01 05:18:12;;;;;;;0.80;0.80;;;;;;;-1.02;84.95;98799.22;4883635;29;20052;-86
2022/04/01 05:20:53;;;;;;;0.70;0.70;;;;;;;-1.07;84.70;98801.56;4859838;29;20293;-87
2022/04/01 05:23:32;;;;;;;0.63;0.63;;;;;;;-1.09;84.74;98804.38;4879729;29;20534;-87
2022/04/01 05:26:13;;;;;;;0.80;0.80;;;;;;;-1.07;84.43;98805.03;4881446;29;20140;-87
2022/04/01 05:29:27;;;;;;;0.77;0.77;;;;;;;-1.07;84.35;98802.38;4866521;29;20061;-86
2022/04/01 05:32:05;;;;;;;0.60;0.60;;;;;;;-1.05;84.20;98805.69;4887806;29;20041;-88
2022/04/01 05:34:47;;;;;;;0.60;0.60;;;;;;;-1.05;84.32;98799.56;4891000;29;20073;-85
2022/04/01 05:37:25;;;;;;;0.60;0.60;;;;;;;-1.04;84.28;98796.72;4885958;29;20152;-87
2022/04/01 05:40:05;;;;;;;0.70;0.70;;;;;;;-1.09;84.52;98793.78;4865224;29;20521;-85
2022/04/01 05:43:04;;;;;;;0.60;0.60;;;;;;;-1.11;84.26;98785.22;4871003;29;20055;-87
2022/04/01 05:45:35;;;;;;;0.77;0.77;;;;;;;-1.09;84.49;98801.72;4915624;28;20110;-85
2022/04/01 05:48:11;;;;;;;0.60;0.60;;;;;;;-1.08;84.46;98790.16;4963077;28;20105;-85
2022/04/01 05:50:45;;;;;;;0.60;0.60;;;;;;;-1.04;84.23;98798.56;4941100;28;20076;-85
2022/04/01 05:53:16;;;;;;;0.52;0.52;;;;;;;-1.06;83.95;98798.75;4956116;28;20133;-86
2022/04/01 05:55:48;;;;;;;0.52;0.52;;;;;;;-1.03;83.91;98808.19;4947088;28;20051;-85
2022/04/01 05:58:17;;;;;;;0.70;0.70;;;;;;;-1.03;84.06;98811.66;4947624;28;20344;-85
2022/04/01 06:01:26;;;;;;;0.70;0.70;;;;;;;-1.05;83.73;98816.28;4945832;28;20051;-84
2022/04/01 06:04:28;;;;;;;0.80;0.80;;;;;;;-1.06;83.83;98819.09;4947555;29;20047;-85
2022/04/01 06:07:21;;;;;;;0.60;0.60;;;;;;;-1.05;83.67;98815.47;4949317;28;20417;-84
2022/04/01 06:10:09;;;;;;;0.63;0.63;;;;;;;-1.09;83.83;98809.69;4939352;29;20083;-86
2022/04/01 06:13:09;;;;;;;0.60;0.60;;;;;;;-1.14;83.60;98812.03;4935072;28;20047;-85
2022/04/01 06:16:37;;;;;;;0.75;0.75;;;;;;;-1.03;83.74;98814.28;4920520;29;20524;-86
2022/04/01 06:19:46;;;;;;;0.63;0.63;;;;;;;-0.97;83.91;98808.28;4929038;29;20400;-85
2022/04/01 06:22:22;;;;;;;0.70;0.70;;;;;;;-0.91;83.33;98802.31;4928448;29;20084;-87
2022/04/01 06:25:12;;;;;;;0.65;0.65;;;;;;;-0.88;83.38;98806.41;4923334;29;20554;-84
2022/04/01 06:27:49;;;;;;;0.90;0.90;;;;;;;-0.84;83.11;98797.09;4899753;29;20063;-85
2022/04/01 06:30:22;;;;;;;0.73;0.73;;;;;;;-0.77;82.75;98797.22;4922985;29;20064;-85
2022/04/01 06:33:31;;;;;;;0.70;0.70;;;;;;;-0.74;82.44;98804.81;4917206;29;20980;-85
2022/04/01 06:36:20;;;;;;;0.70;0.70;;;;;;;-0.71;82.09;98810.63;4909718;29;20059;-85
2022/04/01 06:39:14;;;;;;;0.70;0.70;;;;;;;-0.67;81.69;98803.13;4914338;29;20056;-85
2022/04/01 06:41:50;;;;;;;0.73;0.73;;;;;;;-0.71;81.92;98813.25;4920586;29;20074;-87
2022/04/01 06:44:38;;;;;;;0.60;0.60;;;;;;;-0.67;81.65;98803.94;4926925;29;20105;-86
2022/04/01 06:47:18;;;;;;;0.90;0.90;;;;;;;-0.64;81.09;98810.72;4937144;29;20091;-86
2022/04/01 06:49:52;;;;;;;0.70;0.70;;;;;;;-0.64;80.88;98812.53;4917260;29;20078;-85
2022/04/01 06:52:39;;;;;;;0.90;0.90;;;;;;;-0.61;80.75;98817.47;4911456;29;20056;-86
2022/04/01 06:55:31;;;;;;;0.77;0.77;;;;;;;-0.59;80.51;98808.34;4923337;29;20314;-89
2022/04/01 06:58:00;;;;;;;0.90;0.90;;;;;;;-0.44;80.59;98803.91;4942492;28;20099;-84
2022/04/01 07:00:30;;;;;;;0.75;0.75;;;;;;;-0.36;80.21;98804.84;4943796;29;20051;-88
2022/04/01 07:02:57;;;;;;;0.70;0.70;;;;;;;-0.34;79.83;98805.50;4940621;29;20451;-86
2022/04/01 07:05:25;;;;;;;0.80;0.80;;;;;;;-0.30;79.26;98809.47;4928869;29;20479;-84
2022/04/01 07:07:53;;;;;;;0.80;0.80;;;;;;;-0.27;79.35;98811.75;4940308;28;20066;-86
2022/04/01 07:10:20;;;;;;;0.75;0.75;;;;;;;-0.20;78.85;98811.84;4926976;29;20073;-86
2022/04/01 07:12:49;;;;;;;0.70;0.70;;;;;;;-0.18;78.85;98817.78;4949314;28;20086;-85
2022/04/01 07:15:20;;;;;;;0.60;0.60;;;;;;;-0.16;78.51;98806.00;4933619;29;20059;-87
2022/04/01 07:17:49;;;;;;;0.80;0.80;;;;;;;-0.20;78.06;98806.53;4946112;28;20562;-86
2022/04/01 07:20:18;;;;;;;0.73;0.73;;;;;;;-0.19;78.04;98801.06;4931473;28;20055;-87
2022/04/01 07:22:51;;;;;;;0.60;0.60;;;;;;;-0.17;77.79;98803.53;4919695;28;20113;-85
2022/04/01 07:25:21;;;;;;;0.90;0.90;;;;;;;-0.06;77.58;98811.88;4928554;29;20079;-87
2022/04/01 07:27:53;;;;;;;0.82;0.82;;;;;;;0.02;77.20;98804.84;4909397;28;20376;-88
2022/04/01 07:30:20;;;;;;;0.80;0.80;;;;;;;0.05;76.88;98807.97;4943216;28;20071;-87
2022/04/01 07:32:54;;;;;;;0.68;0.68;;;;;;;0.02;76.66;98804.84;4940701;28;20477;-89
2022/04/01 07:35:22;;;;;;;0.60;0.60;;;;;;;0.01;76.68;98811.16;4945393;28;20051;-86
2022/04/01 07:37:50;;;;;;;0.80;0.80;;;;;;;-0.05;76.92;98807.38;4941024;28;20073;-86
2022/04/01 07:40:21;;;;;;;0.85;0.85;;;;;;;0.01;76.46;98805.84;4946687;28;20054;-86
2022/04/01 07:42:49;;;;;;;0.73;0.73;;;;;;;0.03;76.18;98803.84;4933985;28;20114;-85
2022/04/01 07:45:17;;;;;;;0.90;0.90;;;;;;;0.12;76.04;98818.66;4945696;28;20051;-84
2022/04/01 07:47:46;;;;;;;0.70;0.70;;;;;;;0.18;75.70;98820.59;4958975;28;20641;-85
2022/04/01 07:50:14;;;;;;;0.73;0.73;;;;;;;0.20;75.41;98821.22;4971580;28;20057;-85
2022/04/01 07:52:43;;;;;;;0.70;0.70;;;;;;;0.26;75.01;98819.69;4929161;28;20469;-86
2022/04/01 07:55:14;;;;;;;0.80;0.80;;;;;;;0.27;74.67;98811.53;4963937;28;20054;-88
2022/04/01 07:57:45;;;;;;;0.90;0.90;;;;;;;0.25;75.00;98808.22;4944168;28;20115;-87
2022/04/01 08:00:15;;;;;;;0.80;0.80;;;;;;;0.26;74.93;98809.06;4948911;28;20139;-87
2022/04/01 08:02:44;;;;;;;0.80;0.80;;;;;;;0.20;75.27;98811.44;4962797;28;20061;-84
2022/04/01 08:05:11;;;;;;;0.75;0.75;;;;;;;0.21;75.22;98806.97;4970936;28;20063;-84
2022/04/01 08:07:40;;;;;;;0.70;0.70;;;;;;;0.15;74.39;98805.88;4946440;28;20087;-84
2022/04/01 08:10:08;;;;;;;0.70;0.70;;;;;;;0.18;74.19;98810.81;4939515;28;20082;-85
2022/04/01 08:12:42;;;;;;;0.80;0.80;;;;;;;0.32;73.91;98810.97;4938378;29;20462;-87
2022/04/01 08:15:12;;;;;;;0.80;0.80;;;;;;;0.36;73.32;98812.28;4929292;29;20067;-87
2022/04/01 08:17:39;;;;;;;0.70;0.70;;;;;;;0.37;73.01;98806.75;4930144;29;20058;-85
2022/04/01 08:20:07;;;;;;;0.80;0.80;;;;;;;0.39;73.29;98818.03;4933388;28;20053;-87
2022/04/01 08:22:42;;;;;;;0.82;0.82;;;;;;;0.43;73.21;98810.50;4956089;28;20051;-85
2022/04/01 08:25:11;;;;;;;0.80;0.80;;;;;;;0.59;72.50;98817.47;4939295;28;20077;-83
2022/04/01 08:27:38;;;;;;;0.80;0.80;;;;;;;0.66;72.01;98818.38;4937103;28;20442;-85
2022/04/01 08:30:06;;;;;;;0.70;0.70;;;;;;;0.68;72.20;98823.50;4962472;28;20055;-85
2022/04/01 08:32:35;;;;;;;0.80;0.80;;;;;;;0.69;72.32;98823.31;4941674;28;20048;-85
2022/04/01 08:35:05;;;;;;;0.80;0.80;;;;;;;0.71;71.98;98826.63;4948801;28;20047;-85
2022/04/01 08:37:35;;;;;;;0.85;0.85;;;;;;;0.67;72.07;98830.66;4961032;28;20138;-86
2022/04/01 08:40:05;;;;;;;0.80;0.80;;;;;;;0.55;72.26;98824.97;4932966;29;20483;-86
2022/04/01 08:42:35;;;;;;;0.80;0.80;;;;;;;0.58;71.81;98829.94;4944875;28;20485;-84
2022/04/01 08:45:07;;;;;;;0.77;0.77;;;;;;;0.67;71.52;98824.53;4949477;28;20087;-86
2022/04/01 08:47:36;;;;;;;0.80;0.80;;;;;;;0.81;71.31;98819.19;4966833;28;20466;-84
2022/04/01 08:50:04;;;;;;;0.90;0.90;;;;;;;0.94;70.90;98828.28;4957106;28;20544;-86
2022/04/01 08:52:34;;;;;;;0.80;0.80;;;;;;;1.01;70.43;98821.22;4947610;28;20092;-84
2022/04/01 08:55:08;;;;;;;0.80;0.80;;;;;;;1.00;69.81;98817.75;4945934;28;20058;-86
2022/04/01 08:57:38;;;;;;;0.82;0.82;;;;;;;1.19;69.31;98820.81;4973158;28;20109;-85
2022/04/01 09:00:11;;;;;;;0.88;0.88;;;;;;;1.36;68.82;98824.06;4946383;28;20074;-86
2022/04/01 09:02:38;;;;;;;0.90;0.90;;;;;;;1.51;68.23;98820.31;4957551;28;20677;-84
2022/04/01 09:05:07;;;;;;;0.80;0.80;;;;;;;1.60;68.12;98815.69;4948071;28;20057;-86
2022/04/01 09:07:37;;;;;;;0.90;0.90;;;;;;;1.67;67.63;98834.38;4937831;28;20478;-85
2022/04/01 09:10:06;;;;;;;0.90;0.90;;;;;;;1.71;67.45;98832.97;4972697;28;20054;-84
2022/04/01 09:12:50;;;;;;;0.80;0.80;;;;;;;1.69;67.40;98833.16;4951481;28;20048;-87
2022/04/01 09:15:18;;;;;;;0.90;0.90;;;;;;;1.72;67.29;98831.94;4944809;28;20575;-84
2022/04/01 09:17:49;;;;;;;0.80;0.80;;;;;;;1.89;66.90;98828.00;4947082;28;20059;-84
2022/04/01 09:20:17;;;;;;;0.75;0.75;;;;;;;1.97;66.93;98824.38;4908595;28;20075;-83
2022/04/01 09:22:45;;;;;;;1.00;1.00;;;;;;;1.86;66.80;98820.41;4964296;28;20145;-86
2022/04/01 09:25:19;;;;;;;0.88;0.88;;;;;;;2.05;66.72;98826.91;4950823;28;20051;-86
2022/04/01 09:27:52;;;;;;;0.80;0.80;;;;;;;2.20;66.06;98817.97;4918466;29;20081;-85
2022/04/01 09:30:28;;;;;;;0.80;0.80;;;;;;;2.20;65.89;98810.81;4935291;29;20545;-85
2022/04/01 09:33:01;;;;;;;0.82;0.82;;;;;;;2.27;65.31;98808.19;4919752;29;20066;-85
2022/04/01 09:35:31;;;;;;;0.90;0.90;;;;;;;2.36;64.95;98815.03;4932201;29;20158;-85
2022/04/01 09:38:04;;;;;;;0.73;0.73;;;;;;;2.49;64.51;98806.28;4937950;28;20106;-84
2022/04/01 09:40:35;;;;;;;0.80;0.80;;;;;;;2.32;64.75;98817.25;4934742;28;21154;-84
2022/04/01 09:43:07;;;;;;;0.80;0.80;;;;;;;2.44;64.94;98820.19;4945446;29;20039;-85
2022/04/01 09:45:38;;;;;;;0.80;0.80;;;;;;;2.49;64.97;98814.28;4933447;28;20047;-85
2022/04/01 09:48:09;;;;;;;0.73;0.73;;;;;;;2.74;63.89;98810.09;4945424;28;20051;-83
2022/04/01 09:50:39;;;;;;;0.90;0.90;;;;;;;2.81;63.34;98810.09;4936070;29;20081;-83
2022/04/01 09:53:21;;;;;;;0.88;0.88;;;;;;;2.99;62.96;98799.72;4952539;28;20066;-83
2022/04/01 09:55:52;;;;;;;0.88;0.88;;;;;;;3.01;62.47;98799.50;4948035;28;20423;-83
2022/04/01 09:58:22;;;;;;;0.90;0.90;;;;;;;3.01;61.87;98789.69;4929381;29;20083;-83
2022/04/01 10:00:52;;;;;;;0.88;0.88;;;;;;;3.04;61.82;98786.63;4940563;29;20142;-86
2022/04/01 10:03:20;;;;;;;0.90;0.90;;;;;;;3.65;60.90;98791.00;4935486;29;20062;-87
2022/04/01 10:05:53;;;;;;;0.80;0.80;;;;;;;3.78;60.08;98790.19;4934189;29;20126;-83
2022/04/01 10:08:22;;;;;;;1.00;1.00;;;;;;;4.30;58.67;98788.50;4952427;29;20106;-92
2022/04/01 10:10:49;;;;;;;0.90;0.90;;;;;;;4.74;57.35;98784.22;4969354;29;20083;-90
2022/04/01 10:13:30;;;;;;;0.90;0.90;;;;;;;4.90;56.30;98784.78;4972675;28;20028;-88
2022/04/01 10:15:59;;;;;;;0.90;0.90;;;;;;;5.01;55.85;98770.72;4961606;28;20043;-86
2022/04/01 10:18:56;;;;;;;0.85;0.85;;;;;;;5.15;55.49;98774.16;4947029;29;20051;-90
2022/04/01 10:22:07;;;;;;;0.90;0.90;;;;;;;4.67;56.09;98771.91;4966493;28;20061;-89
2022/04/01 10:24:47;;;;;;;0.88;0.88;;;;;;;4.85;55.37;98768.53;4977873;28;20058;-92
2022/04/01 10:27:23;;;;;;;0.90;0.90;;;;;;;4.71;55.30;98757.91;4976235;28;20051;-92
2022/04/01 10:29:57;;;;;;;0.80;0.80;;;;;;;4.66;55.27;98762.25;4977356;28;20075;-95
2022/04/01 10:32:38;;;;;;;0.90;0.90;;;;;;;4.63;55.67;98760.00;4969419;28;20051;-92
2022/04/01 10:35:09;;;;;;;0.90;0.90;;;;;;;4.99;54.89;98749.53;4961615;28;20051;-93
2022/04/01 10:37:37;;;;;;;0.80;0.80;;;;;;;5.21;53.98;98754.53;4964099;28;20051;-91
2022/04/01 10:40:19;;;;;;;0.90;0.90;;;;;;;5.17;53.05;98738.13;4982259;28;20049;-92
2022/04/01 10:43:19;;;;;;;0.90;0.90;;;;;;;5.17;53.24;98739.97;4913313;29;20522;-93
2022/04/01 10:46:16;;;;;;;1.00;1.00;;;;;;;4.84;53.56;98741.00;4972200;28;20043;-91
2022/04/01 10:52:23;;;;;;;0.80;0.80;;;;;;;4.90;53.78;98742.78;4992355;28;20050;-93
2022/04/01 10:55:09;;;;;;;0.90;0.90;;;;;;;5.59;52.24;98735.72;4970437;28;20031;-90
2022/04/01 10:57:46;;;;;;;0.90;0.90;;;;;;;6.12;51.16;98734.44;4963352;28;20051;-85
2022/04/01 11:00:17;;;;;;;0.80;0.80;;;;;;;6.15;51.07;98731.31;4965099;28;20110;-85
2022/04/01 11:02:46;;;;;;;0.80;0.80;;;;;;;5.82;51.09;98723.59;4942718;28;20429;-84
2022/04/01 11:05:35;;;;;;;1.00;1.00;;;;;;;5.73;51.96;98728.41;4947659;28;20094;-83
2022/04/01 11:08:16;;;;;;;1.00;1.00;;;;;;;6.27;50.04;98721.50;4934108;29;20138;-84
2022/04/01 11:11:12;;;;;;;1.00;1.00;;;;;;;7.26;48.69;98715.06;4934945;29;20094;-84
2022/04/01 11:13:39;;;;;;;1.00;1.00;;;;;;;7.88;46.79;98714.66;4942857;29;20059;-83
2022/04/01 11:16:15;;;;;;;1.00;1.00;;;;;;;8.41;45.54;98708.31;4936510;29;20557;-85
2022/04/01 11:19:13;;;;;;;1.00;1.00;;;;;;;8.83;44.68;98703.50;4954244;29;20051;-85
2022/04/01 11:21:42;;;;;;;1.05;1.05;;;;;;;8.74;43.57;98688.00;4936073;29;20062;-83
2022/04/01 11:24:33;;;;;;;1.10;1.10;;;;;;;9.27;42.87;98692.16;4946220;28;20047;-84
2022/04/01 11:27:27;;;;;;;1.00;1.00;;;;;;;9.59;42.69;98681.63;4941815;28;20420;-84
2022/04/01 11:30:26;;;;;;;0.90;0.90;;;;;;;9.68;41.48;98679.34;4951693;29;20063;-85
2022/04/01 11:33:09;;;;;;;0.90;0.90;;;;;;;9.55;41.41;98681.31;4923952;28;20082;-84
2022/04/01 11:35:41;;;;;;;0.90;0.90;;;;;;;9.00;41.75;98673.13;4940827;28;20074;-83
2022/04/01 11:38:18;;;;;;;0.95;0.95;;;;;;;8.93;41.83;98665.19;4942458;29;20048;-85
2022/04/01 11:40:47;;;;;;;0.88;0.88;;;;;;;8.60;41.80;98672.13;4918759;29;20055;-85
2022/04/01 11:43:16;;;;;;;0.90;0.90;;;;;;;8.63;42.04;98668.97;4921322;29;20535;-84
2022/04/01 11:45:57;;;;;;;0.88;0.88;;;;;;;8.37;41.76;98661.41;4953230;28;20522;-85
2022/04/01 11:48:36;;;;;;;0.90;0.90;;;;;;;8.15;42.50;98662.06;4958565;28;20050;-83
2022/04/01 11:51:13;;;;;;;0.90;0.90;;;;;;;7.87;42.61;98651.22;4937923;28;20079;-85
2022/04/01 11:53:51;;;;;;;0.70;0.70;;;;;;;7.53;43.35;98648.31;4944123;29;20139;-85
2022/04/01 11:56:25;;;;;;;0.88;0.88;;;;;;;7.30;43.70;98652.63;4934199;28;20087;-84
2022/04/01 11:58:53;;;;;;;0.90;0.90;;;;;;;7.44;43.61;98647.03;4938545;28;20084;-84
2022/04/01 12:01:23;;;;;;;0.80;0.80;;;;;;;7.72;43.71;98649.84;4940747;28;20136;-85
2022/04/01 12:03:50;;;;;;;0.80;0.80;;;;;;;7.67;43.45;98641.69;4938685;28;20147;-85
2022/04/01 12:09:11;;;;;;;0.80;0.80;;;;;;;7.81;43.07;98631.50;4944753;28;20047;-84
2022/04/01 12:11:47;;;;;;;0.88;0.88;;;;;;;7.94;42.69;98625.06;4941805;28;20062;-82
2022/04/01 12:14:24;;;;;;;0.70;0.70;;;;;;;7.77;42.76;98631.16;4947781;28;20047;-86
2022/04/01 12:16:51;;;;;;;0.80;0.80;;;;;;;7.53;42.85;98624.16;4947746;28;20483;-83
2022/04/01 12:19:22;;;;;;;0.77;0.77;;;;;;;7.23;42.89;98625.06;4937714;29;20075;-83
2022/04/01 12:21:57;;;;;;;0.80;0.80;;;;;;;6.73;43.51;98609.34;4935696;29;20146;-83
2022/04/01 12:24:29;;;;;;;0.70;0.70;;;;;;;6.42;43.71;98616.59;4936146;29;20059;-84
2022/04/01 12:27:00;;;;;;;0.65;0.65;;;;;;;6.12;44.50;98611.19;4955763;28;20059;-82